sensor_id;sensor_type;location;lat;lon;timestamp;temperature;humidity
30379;DHT22;17168;49.164;9.060;2023-10-09T00:07:24;14.50;87.30
30379;DHT22;17168;49.164;9.060;2023-10-09T00:09:57;14.40;87.70
30379;DHT22;17168;49.164;9.060;2023-10-09T00:12:29;14.40;88.20
30379;DHT22;17168;49.164;9.060;2023-10-09T00:15:02;14.40;88.60
30379;DHT22;17168;49.164;9.060;2023-10-09T00:17:43;14.40;88.90
30379;DHT22;17168;49.164;9.060;2023-10-09T00:20:19;14.30;89.40
30379;DHT22;17168;49.164;9.060;2023-10-09T00:22:56;14.30;90.10
30379;DHT22;17168;49.164;9.060;2023-10-09T00:25:30;14.30;90.30
30379;DHT22;17168;49.164;9.060;2023-10-09T00:28:08;14.30;90.60
30379;DHT22;17168;49.164;9.060;2023-10-09T00:30:42;14.20;90.80
30379;DHT22;17168;49.164;9.060;2023-10-09T00:33:14;14.20;91.10
30379;DHT22;17168;49.164;9.060;2023-10-09T00:35:48;14.20;91.40
30379;DHT22;17168;49.164;9.060;2023-10-09T00:38:29;14.20;91.70
30379;DHT22;17168;49.164;9.060;2023-10-09T00:41:05;14.10;91.90
30379;DHT22;17168;49.164;9.060;2023-10-09T00:43:40;14.10;92.00
30379;DHT22;17168;49.164;9.060;2023-10-09T00:46:17;14.10;92.10
30379;DHT22;17168;49.164;9.060;2023-10-09T00:48:54;14.10;92.20
30379;DHT22;17168;49.164;9.060;2023-10-09T00:51:27;14.10;92.30
30379;DHT22;17168;49.164;9.060;2023-10-09T00:54:09;14.10;92.40
30379;DHT22;17168;49.164;9.060;2023-10-09T00:56:47;14.00;92.60
30379;DHT22;17168;49.164;9.060;2023-10-09T00:59:30;14.00;92.70
30379;DHT22;17168;49.164;9.060;2023-10-09T01:02:03;14.00;92.80
30379;DHT22;17168;49.164;9.060;2023-10-09T01:04:38;14.00;92.90
30379;DHT22;17168;49.164;9.060;2023-10-09T01:07:15;14.00;93.30
30379;DHT22;17168;49.164;9.060;2023-10-09T01:09:50;14.00;93.30
30379;DHT22;17168;49.164;9.060;2023-10-09T01:12:25;14.10;94.30
30379;DHT22;17168;49.164;9.060;2023-10-09T01:15:00;14.00;93.50
30379;DHT22;17168;49.164;9.060;2023-10-09T01:17:34;14.00;93.80
30379;DHT22;17168;49.164;9.060;2023-10-09T01:20:22;14.00;94.10
30379;DHT22;17168;49.164;9.060;2023-10-09T01:23:03;14.00;94.40
30379;DHT22;17168;49.164;9.060;2023-10-09T01:25:36;14.00;94.40
30379;DHT22;17168;49.164;9.060;2023-10-09T01:28:16;14.00;94.80
30379;DHT22;17168;49.164;9.060;2023-10-09T01:30:48;14.00;94.80
30379;DHT22;17168;49.164;9.060;2023-10-09T01:33:20;14.00;94.70
30379;DHT22;17168;49.164;9.060;2023-10-09T01:35:56;14.00;94.70
30379;DHT22;17168;49.164;9.060;2023-10-09T01:38:34;14.00;94.80
30379;DHT22;17168;49.164;9.060;2023-10-09T01:41:12;14.00;94.90
30379;DHT22;17168;49.164;9.060;2023-10-09T01:43:47;14.00;95.00
30379;DHT22;17168;49.164;9.060;2023-10-09T01:46:23;14.00;95.30
30379;DHT22;17168;49.164;9.060;2023-10-09T01:48:55;14.00;95.40
30379;DHT22;17168;49.164;9.060;2023-10-09T01:51:27;14.00;95.50
30379;DHT22;17168;49.164;9.060;2023-10-09T01:54:08;14.00;95.60
30379;DHT22;17168;49.164;9.060;2023-10-09T01:56:41;14.10;95.60
30379;DHT22;17168;49.164;9.060;2023-10-09T01:59:18;14.10;95.70
30379;DHT22;17168;49.164;9.060;2023-10-09T02:01:50;14.10;95.80
30379;DHT22;17168;49.164;9.060;2023-10-09T02:04:26;14.10;95.80
30379;DHT22;17168;49.164;9.060;2023-10-09T02:06:58;14.10;96.10
30379;DHT22;17168;49.164;9.060;2023-10-09T02:09:34;14.10;96.10
30379;DHT22;17168;49.164;9.060;2023-10-09T02:12:07;14.10;96.20
30379;DHT22;17168;49.164;9.060;2023-10-09T02:14:40;14.10;96.40
30379;DHT22;17168;49.164;9.060;2023-10-09T02:17:13;14.10;96.50
30379;DHT22;17168;49.164;9.060;2023-10-09T02:20:01;14.20;96.70
30379;DHT22;17168;49.164;9.060;2023-10-09T02:22:48;14.20;96.70
30379;DHT22;17168;49.164;9.060;2023-10-09T02:25:23;14.20;96.80
30379;DHT22;17168;49.164;9.060;2023-10-09T02:28:01;14.20;96.90
30379;DHT22;17168;49.164;9.060;2023-10-09T02:30:38;14.30;96.90
30379;DHT22;17168;49.164;9.060;2023-10-09T02:33:13;14.30;97.00
30379;DHT22;17168;49.164;9.060;2023-10-09T02:35:50;14.30;97.00
30379;DHT22;17168;49.164;9.060;2023-10-09T02:38:23;14.30;97.10
30379;DHT22;17168;49.164;9.060;2023-10-09T02:40:59;14.30;97.20
30379;DHT22;17168;49.164;9.060;2023-10-09T02:43:37;14.30;97.30
30379;DHT22;17168;49.164;9.060;2023-10-09T02:46:19;14.40;97.30
30379;DHT22;17168;49.164;9.060;2023-10-09T02:49:03;14.40;97.40
30379;DHT22;17168;49.164;9.060;2023-10-09T02:51:36;14.40;97.30
30379;DHT22;17168;49.164;9.060;2023-10-09T02:54:19;14.40;97.30
30379;DHT22;17168;49.164;9.060;2023-10-09T02:56:57;14.40;97.20
30379;DHT22;17168;49.164;9.060;2023-10-09T02:59:38;14.40;97.10
30379;DHT22;17168;49.164;9.060;2023-10-09T03:02:13;14.50;97.10
30379;DHT22;17168;49.164;9.060;2023-10-09T03:04:46;14.40;97.30
30379;DHT22;17168;49.164;9.060;2023-10-09T03:07:18;14.50;97.50
30379;DHT22;17168;49.164;9.060;2023-10-09T03:09:50;14.40;97.50
30379;DHT22;17168;49.164;9.060;2023-10-09T03:12:25;14.50;97.60
30379;DHT22;17168;49.164;9.060;2023-10-09T03:14:59;14.40;97.50
30379;DHT22;17168;49.164;9.060;2023-10-09T03:17:34;14.40;97.40
30379;DHT22;17168;49.164;9.060;2023-10-09T03:20:08;14.40;97.30
30379;DHT22;17168;49.164;9.060;2023-10-09T03:22:45;14.50;97.20
30379;DHT22;17168;49.164;9.060;2023-10-09T03:25:19;14.40;97.10
30379;DHT22;17168;49.164;9.060;2023-10-09T03:27:54;14.40;97.00
30379;DHT22;17168;49.164;9.060;2023-10-09T03:30:28;14.50;97.00
30379;DHT22;17168;49.164;9.060;2023-10-09T03:33:04;14.40;97.00
30379;DHT22;17168;49.164;9.060;2023-10-09T03:35:37;14.40;97.00
30379;DHT22;17168;49.164;9.060;2023-10-09T03:38:11;14.40;97.00
30379;DHT22;17168;49.164;9.060;2023-10-09T03:40:50;14.40;96.70
30379;DHT22;17168;49.164;9.060;2023-10-09T03:43:26;14.50;96.40
30379;DHT22;17168;49.164;9.060;2023-10-09T03:46:04;14.50;96.10
30379;DHT22;17168;49.164;9.060;2023-10-09T03:48:37;14.60;96.10
30379;DHT22;17168;49.164;9.060;2023-10-09T03:51:09;14.70;96.10
30379;DHT22;17168;49.164;9.060;2023-10-09T03:53:44;14.70;96.00
30379;DHT22;17168;49.164;9.060;2023-10-09T03:56:17;14.80;96.00
30379;DHT22;17168;49.164;9.060;2023-10-09T03:58:52;14.80;95.80
30379;DHT22;17168;49.164;9.060;2023-10-09T04:01:25;14.80;95.50
30379;DHT22;17168;49.164;9.060;2023-10-09T04:04:00;14.90;95.40
30379;DHT22;17168;49.164;9.060;2023-10-09T04:06:33;14.90;95.20
30379;DHT22;17168;49.164;9.060;2023-10-09T04:09:07;14.90;95.00
30379;DHT22;17168;49.164;9.060;2023-10-09T04:11:49;15.00;94.80
30379;DHT22;17168;49.164;9.060;2023-10-09T04:14:43;14.90;94.50
30379;DHT22;17168;49.164;9.060;2023-10-09T04:17:30;15.00;94.30
30379;DHT22;17168;49.164;9.060;2023-10-09T04:20:06;14.90;94.10
30379;DHT22;17168;49.164;9.060;2023-10-09T04:22:48;15.00;94.20
30379;DHT22;17168;49.164;9.060;2023-10-09T04:25:23;15.00;93.90
30379;DHT22;17168;49.164;9.060;2023-10-09T04:28:00;14.90;93.80
30379;DHT22;17168;49.164;9.060;2023-10-09T04:30:45;15.00;93.70
30379;DHT22;17168;49.164;9.060;2023-10-09T04:33:28;14.90;93.60
30379;DHT22;17168;49.164;9.060;2023-10-09T04:36:01;14.90;93.50
30379;DHT22;17168;49.164;9.060;2023-10-09T04:38:53;14.90;93.40
30379;DHT22;17168;49.164;9.060;2023-10-09T04:41:34;14.90;93.60
30379;DHT22;17168;49.164;9.060;2023-10-09T04:44:15;14.90;93.40
30379;DHT22;17168;49.164;9.060;2023-10-09T04:47:14;14.90;93.40
30379;DHT22;17168;49.164;9.060;2023-10-09T04:49:46;14.90;93.30
30379;DHT22;17168;49.164;9.060;2023-10-09T04:52:34;14.90;93.20
30379;DHT22;17168;49.164;9.060;2023-10-09T04:55:07;14.80;93.00
30379;DHT22;17168;49.164;9.060;2023-10-09T04:57:46;14.80;93.00
30379;DHT22;17168;49.164;9.060;2023-10-09T05:00:35;14.80;93.10
30379;DHT22;17168;49.164;9.060;2023-10-09T05:03:29;14.90;93.00
30379;DHT22;17168;49.164;9.060;2023-10-09T05:06:17;14.90;93.10
30379;DHT22;17168;49.164;9.060;2023-10-09T05:08:57;14.90;93.00
30379;DHT22;17168;49.164;9.060;2023-10-09T05:11:40;14.90;93.00
30379;DHT22;17168;49.164;9.060;2023-10-09T05:14:24;14.90;93.00
30379;DHT22;17168;49.164;9.060;2023-10-09T05:17:02;14.90;92.80
30379;DHT22;17168;49.164;9.060;2023-10-09T05:19:39;14.90;92.90
30379;DHT22;17168;49.164;9.060;2023-10-09T05:22:14;14.90;92.90
30379;DHT22;17168;49.164;9.060;2023-10-09T05:25:04;14.90;92.90
30379;DHT22;17168;49.164;9.060;2023-10-09T05:27:47;14.80;92.90
30379;DHT22;17168;49.164;9.060;2023-10-09T05:30:46;14.90;92.90
30379;DHT22;17168;49.164;9.060;2023-10-09T05:33:27;14.90;92.90
30379;DHT22;17168;49.164;9.060;2023-10-09T05:36:12;14.80;92.90
30379;DHT22;17168;49.164;9.060;2023-10-09T05:38:53;14.80;92.90
30379;DHT22;17168;49.164;9.060;2023-10-09T05:41:50;14.80;92.90
30379;DHT22;17168;49.164;9.060;2023-10-09T05:44:32;14.80;92.80
30379;DHT22;17168;49.164;9.060;2023-10-09T05:47:23;14.80;92.40
30379;DHT22;17168;49.164;9.060;2023-10-09T05:50:01;14.90;92.30
30379;DHT22;17168;49.164;9.060;2023-10-09T05:52:56;15.00;92.20
30379;DHT22;17168;49.164;9.060;2023-10-09T05:55:37;15.10;92.20
30379;DHT22;17168;49.164;9.060;2023-10-09T05:58:28;15.10;92.40
30379;DHT22;17168;49.164;9.060;2023-10-09T06:01:19;15.20;92.20
30379;DHT22;17168;49.164;9.060;2023-10-09T06:04:14;15.20;92.10
30379;DHT22;17168;49.164;9.060;2023-10-09T06:06:51;15.30;92.10
30379;DHT22;17168;49.164;9.060;2023-10-09T06:09:46;15.30;92.00
30379;DHT22;17168;49.164;9.060;2023-10-09T06:12:29;15.30;91.90
30379;DHT22;17168;49.164;9.060;2023-10-09T06:15:26;15.30;91.90
30379;DHT22;17168;49.164;9.060;2023-10-09T06:18:17;15.30;91.90
30379;DHT22;17168;49.164;9.060;2023-10-09T06:21:08;15.30;91.80
30379;DHT22;17168;49.164;9.060;2023-10-09T06:24:00;15.40;91.80
30379;DHT22;17168;49.164;9.060;2023-10-09T06:26:53;15.40;91.70
30379;DHT22;17168;49.164;9.060;2023-10-09T06:29:31;15.50;91.70
30379;DHT22;17168;49.164;9.060;2023-10-09T06:32:21;15.50;91.70
30379;DHT22;17168;49.164;9.060;2023-10-09T06:35:03;15.50;91.70
30379;DHT22;17168;49.164;9.060;2023-10-09T06:37:50;15.50;91.70
30379;DHT22;17168;49.164;9.060;2023-10-09T06:40:48;15.50;91.60
30379;DHT22;17168;49.164;9.060;2023-10-09T06:43:38;15.60;91.70
30379;DHT22;17168;49.164;9.060;2023-10-09T06:46:18;15.60;91.60
30379;DHT22;17168;49.164;9.060;2023-10-09T06:48:56;15.60;91.60
30379;DHT22;17168;49.164;9.060;2023-10-09T06:51:29;15.60;91.60
30379;DHT22;17168;49.164;9.060;2023-10-09T06:54:01;15.70;91.60
30379;DHT22;17168;49.164;9.060;2023-10-09T06:56:42;15.70;91.50
30379;DHT22;17168;49.164;9.060;2023-10-09T06:59:54;15.70;91.50
30379;DHT22;17168;49.164;9.060;2023-10-09T07:02:46;15.80;91.50
30379;DHT22;17168;49.164;9.060;2023-10-09T07:05:38;15.80;91.60
30379;DHT22;17168;49.164;9.060;2023-10-09T07:08:36;15.80;91.60
30379;DHT22;17168;49.164;9.060;2023-10-09T07:11:31;15.90;91.70
30379;DHT22;17168;49.164;9.060;2023-10-09T07:14:22;15.90;91.70
30379;DHT22;17168;49.164;9.060;2023-10-09T07:17:08;15.90;91.80
30379;DHT22;17168;49.164;9.060;2023-10-09T07:20:00;15.90;91.80
30379;DHT22;17168;49.164;9.060;2023-10-09T07:22:45;15.90;91.80
30379;DHT22;17168;49.164;9.060;2023-10-09T07:25:32;16.00;91.70
30379;DHT22;17168;49.164;9.060;2023-10-09T07:28:23;16.00;91.50
30379;DHT22;17168;49.164;9.060;2023-10-09T07:31:17;16.00;91.40
30379;DHT22;17168;49.164;9.060;2023-10-09T07:33:59;16.10;91.40
30379;DHT22;17168;49.164;9.060;2023-10-09T07:36:32;16.10;91.20
30379;DHT22;17168;49.164;9.060;2023-10-09T07:39:08;16.10;91.00
30379;DHT22;17168;49.164;9.060;2023-10-09T07:41:49;16.20;90.90
30379;DHT22;17168;49.164;9.060;2023-10-09T07:44:32;16.20;90.80
30379;DHT22;17168;49.164;9.060;2023-10-09T07:47:11;16.30;90.60
30379;DHT22;17168;49.164;9.060;2023-10-09T07:49:52;16.30;90.60
30379;DHT22;17168;49.164;9.060;2023-10-09T07:52:26;16.40;90.70
30379;DHT22;17168;49.164;9.060;2023-10-09T07:55:06;16.50;90.70
30379;DHT22;17168;49.164;9.060;2023-10-09T07:57:54;16.50;90.70
30379;DHT22;17168;49.164;9.060;2023-10-09T08:00:26;16.60;90.70
30379;DHT22;17168;49.164;9.060;2023-10-09T08:03:08;16.60;90.60
30379;DHT22;17168;49.164;9.060;2023-10-09T08:06:02;16.70;90.30
30379;DHT22;17168;49.164;9.060;2023-10-09T08:08:53;16.70;88.60
30379;DHT22;17168;49.164;9.060;2023-10-09T08:11:34;16.80;88.40
30379;DHT22;17168;49.164;9.060;2023-10-09T08:14:14;16.90;88.30
30379;DHT22;17168;49.164;9.060;2023-10-09T08:17:05;16.90;88.40
30379;DHT22;17168;49.164;9.060;2023-10-09T08:19:57;17.00;88.50
30379;DHT22;17168;49.164;9.060;2023-10-09T08:22:39;17.10;88.50
30379;DHT22;17168;49.164;9.060;2023-10-09T08:25:22;17.10;87.40
30379;DHT22;17168;49.164;9.060;2023-10-09T08:28:09;17.10;85.60
30379;DHT22;17168;49.164;9.060;2023-10-09T08:31:01;17.20;85.00
30379;DHT22;17168;49.164;9.060;2023-10-09T08:34:03;17.30;84.40
30379;DHT22;17168;49.164;9.060;2023-10-09T08:36:44;17.40;83.90
30379;DHT22;17168;49.164;9.060;2023-10-09T08:39:26;17.50;83.00
30379;DHT22;17168;49.164;9.060;2023-10-09T08:42:05;17.50;82.20
30379;DHT22;17168;49.164;9.060;2023-10-09T08:44:46;17.60;81.20
30379;DHT22;17168;49.164;9.060;2023-10-09T08:47:24;17.70;80.70
30379;DHT22;17168;49.164;9.060;2023-10-09T08:49:56;17.80;80.40
30379;DHT22;17168;49.164;9.060;2023-10-09T08:52:29;17.80;80.30
30379;DHT22;17168;49.164;9.060;2023-10-09T08:55:04;17.90;80.50
30379;DHT22;17168;49.164;9.060;2023-10-09T08:57:39;18.00;80.00
30379;DHT22;17168;49.164;9.060;2023-10-09T09:00:17;18.10;79.40
30379;DHT22;17168;49.164;9.060;2023-10-09T09:02:53;18.20;79.20
30379;DHT22;17168;49.164;9.060;2023-10-09T09:05:26;18.20;79.00
30379;DHT22;17168;49.164;9.060;2023-10-09T09:08:00;18.30;78.80
30379;DHT22;17168;49.164;9.060;2023-10-09T09:10:35;18.40;78.40
30379;DHT22;17168;49.164;9.060;2023-10-09T09:13:14;18.50;78.60
30379;DHT22;17168;49.164;9.060;2023-10-09T09:15:50;18.60;77.70
30379;DHT22;17168;49.164;9.060;2023-10-09T09:18:28;18.70;77.50
30379;DHT22;17168;49.164;9.060;2023-10-09T09:21:17;18.70;77.10
30379;DHT22;17168;49.164;9.060;2023-10-09T09:23:56;18.90;76.70
30379;DHT22;17168;49.164;9.060;2023-10-09T09:26:39;18.90;76.20
30379;DHT22;17168;49.164;9.060;2023-10-09T09:29:38;19.10;75.60
30379;DHT22;17168;49.164;9.060;2023-10-09T09:32:14;19.20;74.90
30379;DHT22;17168;49.164;9.060;2023-10-09T09:34:54;19.20;75.40
30379;DHT22;17168;49.164;9.060;2023-10-09T09:37:36;19.30;74.70
30379;DHT22;17168;49.164;9.060;2023-10-09T09:40:17;19.30;73.90
30379;DHT22;17168;49.164;9.060;2023-10-09T09:43:09;19.40;74.30
30379;DHT22;17168;49.164;9.060;2023-10-09T09:46:01;19.50;74.30
30379;DHT22;17168;49.164;9.060;2023-10-09T09:48:44;19.60;73.70
30379;DHT22;17168;49.164;9.060;2023-10-09T09:51:22;19.60;73.70
30379;DHT22;17168;49.164;9.060;2023-10-09T09:53:55;19.70;74.00
30379;DHT22;17168;49.164;9.060;2023-10-09T09:56:37;19.70;73.80
30379;DHT22;17168;49.164;9.060;2023-10-09T09:59:26;19.80;73.80
30379;DHT22;17168;49.164;9.060;2023-10-09T10:02:01;19.90;73.40
30379;DHT22;17168;49.164;9.060;2023-10-09T10:04:42;19.90;73.50
30379;DHT22;17168;49.164;9.060;2023-10-09T10:07:20;20.00;72.60
30379;DHT22;17168;49.164;9.060;2023-10-09T10:09:53;20.00;72.20
30379;DHT22;17168;49.164;9.060;2023-10-09T10:16:04;20.10;72.00
30379;DHT22;17168;49.164;9.060;2023-10-09T10:18:54;20.10;72.10
30379;DHT22;17168;49.164;9.060;2023-10-09T10:21:35;20.10;72.00
30379;DHT22;17168;49.164;9.060;2023-10-09T10:24:42;20.20;72.00
30379;DHT22;17168;49.164;9.060;2023-10-09T10:27:25;20.20;71.70
30379;DHT22;17168;49.164;9.060;2023-10-09T10:30:26;20.30;71.60
30379;DHT22;17168;49.164;9.060;2023-10-09T10:33:10;20.40;71.70
30379;DHT22;17168;49.164;9.060;2023-10-09T10:35:51;20.40;71.20
30379;DHT22;17168;49.164;9.060;2023-10-09T10:38:28;20.40;71.40
30379;DHT22;17168;49.164;9.060;2023-10-09T10:41:14;20.50;71.70
30379;DHT22;17168;49.164;9.060;2023-10-09T10:43:52;20.50;71.10
30379;DHT22;17168;49.164;9.060;2023-10-09T10:46:25;20.60;70.90
30379;DHT22;17168;49.164;9.060;2023-10-09T10:49:12;20.60;70.30
30379;DHT22;17168;49.164;9.060;2023-10-09T10:51:48;20.70;70.00
30379;DHT22;17168;49.164;9.060;2023-10-09T10:54:22;20.70;69.40
30379;DHT22;17168;49.164;9.060;2023-10-09T10:57:13;20.70;69.30
30379;DHT22;17168;49.164;9.060;2023-10-09T10:59:51;20.70;69.80
30379;DHT22;17168;49.164;9.060;2023-10-09T11:02:44;20.70;69.80
30379;DHT22;17168;49.164;9.060;2023-10-09T11:05:35;20.70;70.20
30379;DHT22;17168;49.164;9.060;2023-10-09T11:08:14;20.80;70.90
30379;DHT22;17168;49.164;9.060;2023-10-09T11:10:56;20.70;70.60
30379;DHT22;17168;49.164;9.060;2023-10-09T11:13:45;20.80;70.70
30379;DHT22;17168;49.164;9.060;2023-10-09T11:16:30;20.80;70.50
30379;DHT22;17168;49.164;9.060;2023-10-09T11:19:20;20.80;69.80
30379;DHT22;17168;49.164;9.060;2023-10-09T11:22:04;20.80;69.90
30379;DHT22;17168;49.164;9.060;2023-10-09T11:24:39;20.90;70.10
30379;DHT22;17168;49.164;9.060;2023-10-09T11:27:18;20.90;70.20
30379;DHT22;17168;49.164;9.060;2023-10-09T11:29:52;20.90;70.20
30379;DHT22;17168;49.164;9.060;2023-10-09T11:32:25;20.90;70.40
30379;DHT22;17168;49.164;9.060;2023-10-09T11:35:12;21.00;70.30
30379;DHT22;17168;49.164;9.060;2023-10-09T11:37:58;21.10;70.40
30379;DHT22;17168;49.164;9.060;2023-10-09T11:40:38;21.20;70.70
30379;DHT22;17168;49.164;9.060;2023-10-09T11:43:47;21.20;70.50
30379;DHT22;17168;49.164;9.060;2023-10-09T11:46:26;21.20;70.50
30379;DHT22;17168;49.164;9.060;2023-10-09T11:49:21;21.30;70.60
30379;DHT22;17168;49.164;9.060;2023-10-09T11:51:53;21.30;70.60
30379;DHT22;17168;49.164;9.060;2023-10-09T11:54:55;21.40;69.80
30379;DHT22;17168;49.164;9.060;2023-10-09T11:57:34;21.50;69.70
30379;DHT22;17168;49.164;9.060;2023-10-09T12:00:08;21.60;69.30
30379;DHT22;17168;49.164;9.060;2023-10-09T12:03:06;21.70;69.50
30379;DHT22;17168;49.164;9.060;2023-10-09T12:05:38;21.80;69.30
30379;DHT22;17168;49.164;9.060;2023-10-09T12:08:16;21.90;68.80
30379;DHT22;17168;49.164;9.060;2023-10-09T12:11:02;22.00;69.00
30379;DHT22;17168;49.164;9.060;2023-10-09T12:13:35;22.00;68.90
30379;DHT22;17168;49.164;9.060;2023-10-09T12:16:07;22.00;68.70
30379;DHT22;17168;49.164;9.060;2023-10-09T12:18:42;22.10;69.10
30379;DHT22;17168;49.164;9.060;2023-10-09T12:21:14;22.10;67.80
30379;DHT22;17168;49.164;9.060;2023-10-09T12:23:47;22.20;68.30
30379;DHT22;17168;49.164;9.060;2023-10-09T12:26:22;22.20;67.90
30379;DHT22;17168;49.164;9.060;2023-10-09T12:28:57;22.20;68.00
30379;DHT22;17168;49.164;9.060;2023-10-09T12:31:30;22.30;68.30
30379;DHT22;17168;49.164;9.060;2023-10-09T12:34:09;22.40;67.30
30379;DHT22;17168;49.164;9.060;2023-10-09T12:36:41;22.40;67.40
30379;DHT22;17168;49.164;9.060;2023-10-09T12:39:19;22.50;67.40
30379;DHT22;17168;49.164;9.060;2023-10-09T12:41:54;22.60;66.50
30379;DHT22;17168;49.164;9.060;2023-10-09T12:44:35;22.80;66.60
30379;DHT22;17168;49.164;9.060;2023-10-09T12:47:14;22.90;66.20
30379;DHT22;17168;49.164;9.060;2023-10-09T12:49:53;22.90;66.00
30379;DHT22;17168;49.164;9.060;2023-10-09T12:52:26;23.10;65.20
30379;DHT22;17168;49.164;9.060;2023-10-09T12:55:08;23.20;65.70
30379;DHT22;17168;49.164;9.060;2023-10-09T12:57:55;23.40;65.00
30379;DHT22;17168;49.164;9.060;2023-10-09T13:00:41;24.00;63.80
30379;DHT22;17168;49.164;9.060;2023-10-09T13:03:17;24.00;63.80
30379;DHT22;17168;49.164;9.060;2023-10-09T13:05:51;24.40;63.60
30379;DHT22;17168;49.164;9.060;2023-10-09T13:08:26;24.60;61.80
30379;DHT22;17168;49.164;9.060;2023-10-09T13:11:08;24.80;60.10
30379;DHT22;17168;49.164;9.060;2023-10-09T13:13:46;25.10;58.90
30379;DHT22;17168;49.164;9.060;2023-10-09T13:16:20;25.40;59.10
30379;DHT22;17168;49.164;9.060;2023-10-09T13:18:57;25.70;57.50
30379;DHT22;17168;49.164;9.060;2023-10-09T13:21:31;26.00;58.10
30379;DHT22;17168;49.164;9.060;2023-10-09T13:24:10;26.20;56.50
30379;DHT22;17168;49.164;9.060;2023-10-09T13:26:50;26.40;57.10
30379;DHT22;17168;49.164;9.060;2023-10-09T13:29:32;26.60;55.80
30379;DHT22;17168;49.164;9.060;2023-10-09T13:32:11;26.90;54.00
30379;DHT22;17168;49.164;9.060;2023-10-09T13:34:53;27.10;52.80
30379;DHT22;17168;49.164;9.060;2023-10-09T13:37:33;27.30;53.20
30379;DHT22;17168;49.164;9.060;2023-10-09T13:40:17;27.60;52.80
30379;DHT22;17168;49.164;9.060;2023-10-09T13:42:58;27.80;50.80
30379;DHT22;17168;49.164;9.060;2023-10-09T13:45:39;27.70;50.60
30379;DHT22;17168;49.164;9.060;2023-10-09T13:48:11;27.70;50.80
30379;DHT22;17168;49.164;9.060;2023-10-09T13:50:44;27.60;50.20
30379;DHT22;17168;49.164;9.060;2023-10-09T13:53:16;27.60;50.50
30379;DHT22;17168;49.164;9.060;2023-10-09T13:55:49;27.70;50.00
30379;DHT22;17168;49.164;9.060;2023-10-09T13:58:21;27.80;50.00
30379;DHT22;17168;49.164;9.060;2023-10-09T14:00:56;27.90;47.40
30379;DHT22;17168;49.164;9.060;2023-10-09T14:03:29;27.90;47.60
30379;DHT22;17168;49.164;9.060;2023-10-09T14:06:02;27.70;47.60
30379;DHT22;17168;49.164;9.060;2023-10-09T14:08:46;27.50;47.60
30379;DHT22;17168;49.164;9.060;2023-10-09T14:11:19;27.30;47.50
30379;DHT22;17168;49.164;9.060;2023-10-09T14:13:51;27.00;47.70
30379;DHT22;17168;49.164;9.060;2023-10-09T14:16:52;26.80;47.90
30379;DHT22;17168;49.164;9.060;2023-10-09T14:19:32;26.60;48.60
30379;DHT22;17168;49.164;9.060;2023-10-09T14:22:15;26.40;48.80
30379;DHT22;17168;49.164;9.060;2023-10-09T14:24:52;26.20;49.10
30379;DHT22;17168;49.164;9.060;2023-10-09T14:27:30;26.00;49.10
30379;DHT22;17168;49.164;9.060;2023-10-09T14:30:08;25.80;49.40
30379;DHT22;17168;49.164;9.060;2023-10-09T14:32:53;25.70;49.10
30379;DHT22;17168;49.164;9.060;2023-10-09T14:35:28;25.50;48.80
30379;DHT22;17168;49.164;9.060;2023-10-09T14:38:02;25.40;49.30
30379;DHT22;17168;49.164;9.060;2023-10-09T14:40:43;25.30;49.30
30379;DHT22;17168;49.164;9.060;2023-10-09T14:43:19;25.20;49.40
30379;DHT22;17168;49.164;9.060;2023-10-09T14:45:51;25.20;49.60
30379;DHT22;17168;49.164;9.060;2023-10-09T14:48:28;25.10;49.80
30379;DHT22;17168;49.164;9.060;2023-10-09T14:51:04;25.10;50.20
30379;DHT22;17168;49.164;9.060;2023-10-09T14:53:37;25.20;50.80
30379;DHT22;17168;49.164;9.060;2023-10-09T14:56:12;25.20;50.70
30379;DHT22;17168;49.164;9.060;2023-10-09T14:58:53;25.20;50.40
30379;DHT22;17168;49.164;9.060;2023-10-09T15:01:26;25.10;50.80
30379;DHT22;17168;49.164;9.060;2023-10-09T15:04:03;25.10;51.00
30379;DHT22;17168;49.164;9.060;2023-10-09T15:06:35;25.10;51.10
30379;DHT22;17168;49.164;9.060;2023-10-09T15:09:10;25.10;51.00
30379;DHT22;17168;49.164;9.060;2023-10-09T15:11:54;25.10;51.20
30379;DHT22;17168;49.164;9.060;2023-10-09T15:14:26;25.10;51.40
30379;DHT22;17168;49.164;9.060;2023-10-09T15:16:58;25.10;51.80
30379;DHT22;17168;49.164;9.060;2023-10-09T15:19:33;25.10;52.10
30379;DHT22;17168;49.164;9.060;2023-10-09T15:22:06;25.10;52.40
30379;DHT22;17168;49.164;9.060;2023-10-09T15:24:41;25.10;52.90
30379;DHT22;17168;49.164;9.060;2023-10-09T15:27:14;25.10;52.60
30379;DHT22;17168;49.164;9.060;2023-10-09T15:29:47;25.10;52.80
30379;DHT22;17168;49.164;9.060;2023-10-09T15:32:21;25.10;53.00
30379;DHT22;17168;49.164;9.060;2023-10-09T15:34:58;25.10;53.40
30379;DHT22;17168;49.164;9.060;2023-10-09T15:37:30;25.10;53.60
30379;DHT22;17168;49.164;9.060;2023-10-09T15:40:04;25.00;53.60
30379;DHT22;17168;49.164;9.060;2023-10-09T15:42:47;25.00;53.70
30379;DHT22;17168;49.164;9.060;2023-10-09T15:45:22;25.00;54.10
30379;DHT22;17168;49.164;9.060;2023-10-09T15:47:55;25.00;54.70
30379;DHT22;17168;49.164;9.060;2023-10-09T15:50:30;24.90;54.70
30379;DHT22;17168;49.164;9.060;2023-10-09T15:53:06;24.90;55.00
30379;DHT22;17168;49.164;9.060;2023-10-09T15:55:39;24.90;55.60
30379;DHT22;17168;49.164;9.060;2023-10-09T15:58:11;24.80;55.60
30379;DHT22;17168;49.164;9.060;2023-10-09T16:00:43;24.80;55.80
30379;DHT22;17168;49.164;9.060;2023-10-09T16:03:17;24.70;56.00
30379;DHT22;17168;49.164;9.060;2023-10-09T16:05:53;24.70;56.20
30379;DHT22;17168;49.164;9.060;2023-10-09T16:08:25;24.60;56.40
30379;DHT22;17168;49.164;9.060;2023-10-09T16:10:58;24.50;56.70
30379;DHT22;17168;49.164;9.060;2023-10-09T16:13:31;24.50;56.70
30379;DHT22;17168;49.164;9.060;2023-10-09T16:16:04;24.40;57.10
30379;DHT22;17168;49.164;9.060;2023-10-09T16:18:40;24.30;57.50
30379;DHT22;17168;49.164;9.060;2023-10-09T16:21:14;24.20;57.80
30379;DHT22;17168;49.164;9.060;2023-10-09T16:23:46;24.20;58.10
30379;DHT22;17168;49.164;9.060;2023-10-09T16:26:21;24.10;58.20
30379;DHT22;17168;49.164;9.060;2023-10-09T16:28:56;24.00;58.40
30379;DHT22;17168;49.164;9.060;2023-10-09T16:31:31;23.90;58.60
30379;DHT22;17168;49.164;9.060;2023-10-09T16:34:12;23.90;59.00
30379;DHT22;17168;49.164;9.060;2023-10-09T16:36:49;23.80;59.20
30379;DHT22;17168;49.164;9.060;2023-10-09T16:39:23;23.70;59.30
30379;DHT22;17168;49.164;9.060;2023-10-09T16:41:55;23.70;59.50
30379;DHT22;17168;49.164;9.060;2023-10-09T16:44:29;23.60;59.60
30379;DHT22;17168;49.164;9.060;2023-10-09T16:47:02;23.60;59.90
30379;DHT22;17168;49.164;9.060;2023-10-09T16:49:35;23.50;60.10
30379;DHT22;17168;49.164;9.060;2023-10-09T16:52:10;23.50;60.20
30379;DHT22;17168;49.164;9.060;2023-10-09T16:54:46;23.40;60.40
30379;DHT22;17168;49.164;9.060;2023-10-09T16:57:18;23.30;60.40